Time;durP1;ratioP1;P1;durP2;ratioP2;P2;SDS_P1;SDS_P2;PMS_P1;PMS_P2;Temp;Humidity;BMP_temperature;BMP_pressure;BME280_temperature;BME280_humidity;BME280_pressure;Samples;Min_cycle;Max_cycle;Signal;HPM_P1;HPM_P2
2022/03/28 00:00:05;;;;;;;18.23;11.50;;;;;;;8.26;65.79;101355.38;5011398;28;20045;-52
2022/03/28 00:02:33;;;;;;;18.33;11.35;;;;;;;8.23;65.67;101351.22;5007278;28;20065;-52
2022/03/28 00:05:00;;;;;;;16.95;10.98;;;;;;;8.21;65.54;101352.59;5009848;28;20058;-52
2022/03/28 00:07:27;;;;;;;15.23;10.32;;;;;;;8.19;65.99;101347.34;5002878;28;20050;-53
2022/03/28 00:09:56;;;;;;;15.35;10.55;;;;;;;8.20;66.06;101353.72;5013902;28;20054;-54
2022/03/28 00:12:24;;;;;;;17.02;10.50;;;;;;;8.16;65.97;101353.41;5013660;28;20415;-54
2022/03/28 00:14:51;;;;;;;14.73;10.07;;;;;;;8.14;65.96;101350.91;5013336;28;20064;-57
2022/03/28 00:17:18;;;;;;;16.98;10.43;;;;;;;8.12;66.03;101339.25;5013613;28;20407;-56
2022/03/28 00:19:46;;;;;;;16.73;10.40;;;;;;;8.10;65.39;101343.41;4999131;28;20065;-56
2022/03/28 00:22:13;;;;;;;16.88;10.60;;;;;;;8.06;65.72;101334.84;5011748;28;20477;-54
2022/03/28 00:24:40;;;;;;;15.63;10.60;;;;;;;8.06;66.63;101332.06;5013616;28;20407;-56
2022/03/28 00:27:09;;;;;;;17.50;11.40;;;;;;;8.04;65.97;101328.72;5012938;28;20058;-52
2022/03/28 00:29:36;;;;;;;18.63;11.73;;;;;;;8.04;65.84;101330.66;4999000;28;20054;-51
2022/03/28 00:32:05;;;;;;;18.10;11.15;;;;;;;8.02;65.52;101333.72;5013218;28;20478;-55
2022/03/28 00:34:32;;;;;;;14.13;9.20;;;;;;;8.05;65.48;101329.56;5013103;28;20406;-52
2022/03/28 00:36:59;;;;;;;18.85;11.77;;;;;;;8.03;65.47;101327.06;5013287;28;20050;-54
2022/03/28 00:39:26;;;;;;;17.25;11.10;;;;;;;8.01;66.00;101323.72;4996948;28;20525;-54
2022/03/28 00:41:54;;;;;;;17.05;10.77;;;;;;;7.99;65.36;101327.88;5010979;28;20068;-55
2022/03/28 00:44:23;;;;;;;15.15;10.57;;;;;;;7.95;66.54;101318.44;5012647;28;20054;-54
2022/03/28 00:46:51;;;;;;;17.35;11.05;;;;;;;7.94;66.26;101320.41;5012813;28;20053;-53
2022/03/28 00:49:18;;;;;;;21.70;11.57;;;;;;;7.88;65.80;101319.56;5013256;28;20053;-55
2022/03/28 00:51:46;;;;;;;17.10;10.57;;;;;;;7.86;66.36;101318.16;5013008;28;20406;-56
2022/03/28 00:54:13;;;;;;;16.92;10.50;;;;;;;7.85;66.98;101311.78;4996163;28;20054;-53
2022/03/28 00:56:42;;;;;;;19.30;12.02;;;;;;;7.84;66.65;101306.50;5013188;28;20471;-56
2022/03/28 00:59:11;;;;;;;18.63;11.57;;;;;;;7.83;67.03;101299.28;5012869;28;20049;-52
2022/03/28 01:01:40;;;;;;;21.02;12.48;;;;;;;7.81;66.82;101302.34;5003784;28;20069;-54
2022/03/28 01:04:09;;;;;;;19.45;11.13;;;;;;;7.76;66.84;101296.78;5005396;28;20065;-54
2022/03/28 01:06:37;;;;;;;16.60;10.35;;;;;;;7.76;67.13;101299.56;4996597;28;20602;-50
2022/03/28 01:09:05;;;;;;;19.88;11.25;;;;;;;7.77;67.24;101295.69;5008089;28;20417;-53
2022/03/28 01:11:37;;;;;;;19.85;11.20;;;;;;;7.76;66.51;101294.00;5012155;28;20069;-51
2022/03/28 01:14:05;;;;;;;18.13;11.57;;;;;;;7.71;67.43;101289.31;5011974;28;20057;-55
2022/03/28 01:18:05;;;;;;;20.50;11.45;;;;;;;7.69;67.85;101285.97;5011729;28;20475;-55
2022/03/28 01:19:23;;;;;;;17.90;11.98;;;;;;;7.69;67.47;101280.41;5010627;28;20053;-54
2022/03/28 01:21:52;;;;;;;;;;;;;;;7.66;68.32;101277.34;5003593;28;20065;-55
2022/03/28 01:24:19;;;;;;;20.55;12.18;;;;;;;7.62;67.84;101274.31;5003873;28;19929;-53
2022/03/28 01:26:47;;;;;;;19.95;11.73;;;;;;;7.60;67.87;101279.31;4993037;28;20061;-53
2022/03/28 01:29:14;;;;;;;18.67;11.40;;;;;;;7.59;68.22;101271.25;5005641;28;20102;-55
2022/03/28 01:31:42;;;;;;;16.95;11.18;;;;;;;7.56;67.78;101277.34;5010742;28;20054;-54
2022/03/28 01:34:17;;;;;;;17.55;10.77;;;;;;;7.56;68.06;101272.66;5012606;28;20058;-52
2022/03/28 01:36:45;;;;;;;16.90;11.15;;;;;;;7.58;67.91;101272.34;5011550;28;20049;-56
2022/03/28 01:39:15;;;;;;;18.17;11.20;;;;;;;7.56;67.01;101264.34;5012327;28;20406;-53
2022/03/28 01:41:42;;;;;;;19.10;11.10;;;;;;;7.54;66.77;101263.78;5009036;28;20414;-56
2022/03/28 01:44:09;;;;;;;17.13;9.93;;;;;;;7.52;67.50;101252.94;5011944;28;20057;-53
2022/03/28 01:46:48;;;;;;;19.60;10.98;;;;;;;7.52;67.22;101252.13;5012084;28;20053;-53
2022/03/28 01:49:17;;;;;;;17.70;10.48;;;;;;;7.50;67.23;101257.13;5005869;28;20423;-53
2022/03/28 01:51:44;;;;;;;17.13;10.65;;;;;;;7.51;66.93;101242.13;5002126;28;20053;-52
2022/03/28 01:54:14;;;;;;;17.90;10.30;;;;;;;7.50;67.24;101254.34;5011664;28;20058;-53
2022/03/28 01:56:42;;;;;;;17.42;10.15;;;;;;;7.48;66.99;101246.28;5011697;28;20053;-54
2022/03/28 01:59:10;;;;;;;18.40;11.18;;;;;;;7.45;67.32;101235.75;5011715;28;20057;-51
2022/03/28 02:01:38;;;;;;;19.02;11.50;;;;;;;7.44;67.89;101247.13;5010715;28;20062;-50
2022/03/28 02:04:06;;;;;;;17.98;9.88;;;;;;;7.42;67.42;101241.84;5009189;28;20054;-53
2022/03/28 02:06:34;;;;;;;18.20;10.98;;;;;;;7.42;67.79;101230.75;5010006;28;20046;-52
2022/03/28 02:09:02;;;;;;;19.48;11.88;;;;;;;7.42;67.10;101229.94;5010784;28;20108;-54
2022/03/28 02:11:31;;;;;;;19.42;11.27;;;;;;;7.38;67.43;101231.59;5011083;28;20509;-53
2022/03/28 02:13:58;;;;;;;17.80;10.50;;;;;;;7.36;67.91;101222.72;5011681;28;20050;-51
2022/03/28 02:16:26;;;;;;;16.95;11.02;;;;;;;7.33;67.22;101229.63;5010952;28;20402;-54
2022/03/28 02:18:53;;;;;;;17.38;10.65;;;;;;;7.31;67.14;101218.81;5011335;28;20046;-52
2022/03/28 02:21:20;;;;;;;18.35;11.45;;;;;;;7.30;67.38;101217.16;5011154;28;20038;-55
2022/03/28 02:23:48;;;;;;;19.80;11.18;;;;;;;7.28;67.58;101216.59;4999164;28;20418;-53
2022/03/28 02:26:16;;;;;;;17.63;11.18;;;;;;;7.28;68.15;101213.81;5010897;28;20053;-52
2022/03/28 02:28:45;;;;;;;14.43;9.98;;;;;;;7.29;67.85;101211.91;5013739;28;20061;-52
2022/03/28 02:31:12;;;;;;;17.60;10.98;;;;;;;7.30;67.75;101208.00;5014609;28;20049;-55
2022/03/28 02:33:39;;;;;;;19.80;11.80;;;;;;;7.27;67.33;101203.03;5014846;28;20060;-51
2022/03/28 02:36:07;;;;;;;18.58;10.88;;;;;;;7.24;67.48;101203.56;5014756;28;20383;-56
2022/03/28 02:38:34;;;;;;;15.90;10.38;;;;;;;7.23;67.10;101202.72;5003958;28;20061;-52
2022/03/28 02:41:02;;;;;;;17.20;10.50;;;;;;;7.21;67.61;101196.63;5013158;28;20049;-53
2022/03/28 02:43:29;;;;;;;17.88;11.43;;;;;;;7.21;67.25;101193.88;5013786;28;20054;-54
2022/03/28 02:45:58;;;;;;;14.73;9.52;;;;;;;7.20;67.31;101191.34;5015066;28;20053;-50
2022/03/28 02:48:26;;;;;;;15.80;10.73;;;;;;;7.19;67.43;101189.72;5014979;28;20049;-50
2022/03/28 02:50:53;;;;;;;16.08;9.90;;;;;;;7.16;68.31;101187.47;5013270;28;20057;-53
2022/03/28 02:53:21;;;;;;;16.02;10.27;;;;;;;7.13;68.09;101177.78;5015512;28;20050;-51
2022/03/28 02:55:49;;;;;;;14.27;10.15;;;;;;;7.13;68.46;101177.78;5014396;28;20065;-54
2022/03/28 02:58:16;;;;;;;15.05;9.65;;;;;;;7.15;68.43;101170.03;5014805;28;20121;-52
2022/03/28 03:00:44;;;;;;;16.58;10.43;;;;;;;7.14;68.43;101165.59;5011255;28;20414;-52
2022/03/28 03:03:13;;;;;;;15.45;10.30;;;;;;;7.13;68.58;101160.31;5005636;28;20053;-51
2022/03/28 03:05:40;;;;;;;16.17;10.20;;;;;;;7.10;68.59;101158.94;5014301;28;20046;-52
2022/03/28 03:08:08;;;;;;;12.25;8.32;;;;;;;7.10;67.32;101165.31;5007085;28;20053;-50
2022/03/28 03:10:36;;;;;;;14.32;8.63;;;;;;;7.02;67.24;101157.53;4995287;28;20069;-55
2022/03/28 03:13:03;;;;;;;15.63;9.48;;;;;;;6.99;67.69;101158.09;5015137;28;20061;-54
2022/03/28 03:15:31;;;;;;;15.07;9.60;;;;;;;6.96;67.99;101157.81;5013703;28;20502;-54
2022/03/28 03:17:58;;;;;;;14.80;9.70;;;;;;;6.93;67.32;101152.78;5013920;28;20065;-51
2022/03/28 03:20:26;;;;;;;14.27;9.07;;;;;;;6.92;67.30;101151.97;5013639;28;20057;-51
2022/03/28 03:22:54;;;;;;;14.27;9.23;;;;;;;6.92;67.70;101146.44;5013837;28;20046;-50
2022/03/28 03:25:21;;;;;;;15.45;9.05;;;;;;;6.90;67.39;101143.09;5014725;28;20526;-52
2022/03/28 03:27:51;;;;;;;16.60;9.68;;;;;;;6.87;67.33;101144.47;5014332;28;20057;-50
2022/03/28 03:30:19;;;;;;;17.33;9.98;;;;;;;6.87;68.26;101143.66;5013199;28;20057;-53
2022/03/28 03:32:47;;;;;;;14.88;9.73;;;;;;;6.84;67.97;101145.00;5013599;28;20058;-51
2022/03/28 03:35:14;;;;;;;16.98;10.30;;;;;;;6.81;67.91;101142.81;5013039;28;20050;-50
2022/03/28 03:37:43;;;;;;;16.73;10.45;;;;;;;6.82;68.30;101143.63;5012020;28;20053;-52
2022/03/28 03:40:14;;;;;;;13.70;9.48;;;;;;;6.79;67.74;101142.25;5005415;28;20402;-50
2022/03/28 03:42:41;;;;;;;16.10;10.23;;;;;;;6.78;67.66;101137.78;5010842;28;20053;-51
2022/03/28 03:45:10;;;;;;;16.67;10.27;;;;;;;6.76;67.90;101137.25;5013021;28;20054;-51
2022/03/28 03:47:38;;;;;;;16.33;10.07;;;;;;;6.74;67.80;101136.72;5010229;28;20509;-51
2022/03/28 03:50:06;;;;;;;18.05;11.48;;;;;;;6.75;68.56;101135.59;5011607;28;20392;-52
2022/03/28 03:52:33;;;;;;;18.02;10.82;;;;;;;6.73;68.28;101137.78;5013138;28;20054;-53
2022/03/28 03:55:02;;;;;;;15.77;10.93;;;;;;;6.72;68.73;101136.16;5013925;28;20438;-53
2022/03/28 03:57:30;;;;;;;15.90;10.60;;;;;;;6.71;68.69;101132.53;5013524;28;20376;-52
2022/03/28 03:59:57;;;;;;;17.70;11.60;;;;;;;6.70;68.64;101133.66;5012600;28;20530;-55
2022/03/28 04:02:24;;;;;;;14.45;9.85;;;;;;;6.70;68.05;101135.59;5012790;28;20061;-51
2022/03/28 04:04:52;;;;;;;16.58;9.75;;;;;;;6.71;68.65;101127.00;5013602;28;20050;-52
2022/03/28 04:07:19;;;;;;;15.38;9.77;;;;;;;6.69;68.44;101125.59;5012049;28;20050;-53
2022/03/28 04:09:46;;;;;;;17.42;10.85;;;;;;;6.69;68.74;101126.44;5009404;28;20050;-54
2022/03/28 04:12:18;;;;;;;16.33;10.30;;;;;;;6.68;68.92;101126.72;4994209;28;20398;-53
2022/03/28 04:14:45;;;;;;;16.50;10.75;;;;;;;6.66;68.61;101126.16;5000026;28;20053;-53
2022/03/28 04:17:13;;;;;;;16.05;9.70;;;;;;;6.65;69.43;101119.75;5012707;28;20057;-51
2022/03/28 04:19:40;;;;;;;18.40;11.65;;;;;;;6.67;68.98;101122.28;5009543;28;20054;-51
2022/03/28 04:22:08;;;;;;;14.70;10.30;;;;;;;6.67;68.92;101122.28;5013844;28;20053;-52
2022/03/28 04:24:35;;;;;;;17.55;10.98;;;;;;;6.67;68.99;101120.31;5012693;28;20058;-53
2022/03/28 04:27:03;;;;;;;17.65;11.88;;;;;;;6.65;69.02;101119.75;5012391;28;20054;-50
2022/03/28 04:29:35;;;;;;;14.98;9.75;;;;;;;6.62;69.35;101113.97;5009965;28;20076;-52
2022/03/28 04:32:03;;;;;;;16.30;11.20;;;;;;;6.62;68.48;101114.78;5007736;28;20418;-52
2022/03/28 04:34:30;;;;;;;17.02;10.02;;;;;;;6.60;68.99;101116.19;5013349;28;20406;-51
2022/03/28 04:36:57;;;;;;;14.73;10.00;;;;;;;6.58;69.11;101116.44;5012460;28;20050;-55
2022/03/28 04:39:25;;;;;;;16.88;10.55;;;;;;;6.52;68.53;101109.22;5013118;28;20395;-53
2022/03/28 04:41:52;;;;;;;15.05;9.52;;;;;;;6.53;68.99;101116.44;5012830;28;20084;-50
2022/03/28 04:44:19;;;;;;;16.20;10.50;;;;;;;6.50;69.11;101109.47;5012574;28;20050;-51
2022/03/28 04:46:48;;;;;;;14.82;9.93;;;;;;;6.48;68.97;101108.91;5010032;28;20053;-52
2022/03/28 04:49:15;;;;;;;18.15;11.20;;;;;;;6.47;68.74;101111.97;5012969;28;20056;-55
2022/03/28 04:51:43;;;;;;;15.02;9.98;;;;;;;6.44;68.93;101113.34;5012321;28;20057;-54
2022/03/28 04:54:10;;;;;;;19.27;10.52;;;;;;;6.42;69.65;101115.53;5012777;28;20054;-52
2022/03/28 04:56:37;;;;;;;16.05;10.65;;;;;;;6.38;70.19;101114.41;5009175;28;20065;-54
2022/03/28 04:59:05;;;;;;;20.75;11.98;;;;;;;6.41;69.64;101119.41;5012310;28;20486;-55
2022/03/28 05:01:32;;;;;;;18.77;11.55;;;;;;;6.40;70.17;101117.75;5004659;28;20050;-54
2022/03/28 05:04:00;;;;;;;21.38;12.88;;;;;;;6.39;70.48;101121.63;5002809;28;20518;-54
2022/03/28 05:06:28;;;;;;;23.58;13.48;;;;;;;6.40;70.11;101117.75;4993073;28;20046;-54
2022/03/28 05:08:55;;;;;;;17.55;10.50;;;;;;;6.42;70.00;101120.25;4993069;28;20065;-52
2022/03/28 05:11:23;;;;;;;20.05;11.75;;;;;;;6.43;69.44;101111.69;5003297;28;20049;-53
2022/03/28 05:13:51;;;;;;;15.18;9.93;;;;;;;6.45;68.95;101119.72;4999899;28;20061;-51
2022/03/28 05:16:18;;;;;;;19.98;10.98;;;;;;;6.43;69.04;101111.69;5010321;28;20060;-54
2022/03/28 05:18:46;;;;;;;17.15;10.75;;;;;;;6.45;68.25;101108.66;5012130;28;20049;-51
2022/03/28 05:21:14;;;;;;;18.25;10.70;;;;;;;6.43;68.98;101113.63;5011881;28;20058;-52
2022/03/28 05:23:42;;;;;;;19.17;10.93;;;;;;;6.38;68.85;101108.06;5008727;28;20073;-50
2022/03/28 05:26:09;;;;;;;17.40;11.30;;;;;;;6.37;68.54;101110.00;5006974;28;20530;-53
2022/03/28 05:28:36;;;;;;;20.75;11.13;;;;;;;6.37;68.62;101112.75;5012325;28;20065;-53
2022/03/28 05:31:04;;;;;;;17.15;11.95;;;;;;;6.39;68.88;101109.72;5011413;28;20490;-52
2022/03/28 05:33:31;;;;;;;14.65;10.25;;;;;;;6.38;68.46;101111.66;5012250;28;20061;-51
2022/03/28 05:35:59;;;;;;;17.65;11.85;;;;;;;6.43;68.18;101106.16;5011943;28;20060;-51
2022/03/28 05:38:28;;;;;;;19.23;12.10;;;;;;;6.47;68.58;101103.69;5012381;28;20383;-52
2022/03/28 05:40:57;;;;;;;18.80;12.43;;;;;;;6.52;68.21;101114.75;5011343;28;20058;-51
2022/03/28 05:43:25;;;;;;;23.30;13.63;;;;;;;6.55;68.98;101107.84;5009690;28;20372;-50
2022/03/28 05:45:53;;;;;;;18.35;11.77;;;;;;;6.58;68.38;101101.78;5011368;28;20486;-52
2022/03/28 05:48:20;;;;;;;19.83;13.10;;;;;;;6.61;68.61;101104.81;5012835;28;20050;-53
2022/03/28 05:50:49;;;;;;;18.80;12.40;;;;;;;6.66;68.51;101104.00;5006187;28;20517;-49
2022/03/28 05:53:16;;;;;;;20.40;13.15;;;;;;;6.71;68.66;101104.00;5010439;28;20053;-54
2022/03/28 05:55:48;;;;;;;19.33;12.30;;;;;;;6.77;68.90;101104.88;5012251;28;20163;-52
2022/03/28 05:58:16;;;;;;;24.02;13.85;;;;;;;6.81;68.37;101109.56;5012870;28;20360;-54
2022/03/28 06:00:43;;;;;;;23.55;12.88;;;;;;;6.83;67.83;101104.59;5009687;28;20065;-54
2022/03/28 06:03:11;;;;;;;17.40;11.93;;;;;;;6.93;67.42;101102.94;5015059;28;20160;-52
2022/03/28 06:05:39;;;;;;;19.88;11.48;;;;;;;6.99;68.02;101102.69;5013210;28;20069;-55
2022/03/28 06:08:07;;;;;;;20.23;13.00;;;;;;;7.08;67.83;101097.44;5005356;28;20053;-52
2022/03/28 06:10:35;;;;;;;20.05;12.50;;;;;;;7.15;67.72;101100.75;5000390;28;20056;-53
2022/03/28 06:13:04;;;;;;;16.65;11.13;;;;;;;7.25;67.28;101097.19;5006596;28;20062;-53
2022/03/28 06:15:36;;;;;;;18.60;12.35;;;;;;;7.33;66.69;101096.63;5000125;28;20061;-52
2022/03/28 06:18:04;;;;;;;18.67;11.68;;;;;;;7.45;67.22;101093.56;5015496;28;20045;-51
2022/03/28 06:20:32;;;;;;;21.05;11.95;;;;;;;7.55;67.22;101088.00;5010365;28;20073;-51
2022/03/28 06:23:00;;;;;;;23.15;12.10;;;;;;;7.64;67.15;101088.25;5015095;28;20054;-54
2022/03/28 06:25:27;;;;;;;17.13;11.20;;;;;;;7.77;66.64;101086.84;5013961;28;20050;-55
2022/03/28 06:27:54;;;;;;;18.95;11.35;;;;;;;7.90;65.69;101089.06;5014889;28;20045;-54
2022/03/28 06:30:23;;;;;;;17.25;10.80;;;;;;;8.03;65.10;101088.47;5013117;28;20541;-56
2022/03/28 06:32:51;;;;;;;18.58;11.90;;;;;;;8.12;64.96;101080.38;5014955;28;20077;-53
2022/03/28 06:35:18;;;;;;;17.83;11.13;;;;;;;8.22;64.33;101085.06;5015963;28;20060;-55
2022/03/28 06:37:49;;;;;;;21.17;12.40;;;;;;;8.38;64.08;101081.13;5014910;28;20049;-55
2022/03/28 06:40:16;;;;;;;20.45;13.40;;;;;;;8.52;64.56;101076.63;5014214;28;20054;-55
2022/03/28 06:42:44;;;;;;;18.02;12.60;;;;;;;8.67;64.08;101081.28;5012908;28;20046;-53
2022/03/28 06:45:15;;;;;;;21.90;14.32;;;;;;;8.82;64.15;101071.16;5003019;28;20050;-52
2022/03/28 06:47:44;;;;;;;21.17;12.90;;;;;;;8.94;64.23;101075.28;5012440;28;20054;-52
2022/03/28 06:50:12;;;;;;;19.10;12.18;;;;;;;9.12;63.82;101081.25;5007772;28;20061;-49
2022/03/28 06:52:40;;;;;;;16.88;11.50;;;;;;;9.30;63.03;101077.78;5006058;28;20458;-55
2022/03/28 06:55:08;;;;;;;19.00;12.68;;;;;;;9.47;62.96;101079.28;5012827;28;20130;-49
2022/03/28 06:57:35;;;;;;;23.58;14.40;;;;;;;9.59;62.58;101079.72;5010778;28;20049;-52
2022/03/28 07:00:04;;;;;;;16.42;11.73;;;;;;;9.78;62.62;101079.81;5012381;28;20049;-50
2022/03/28 07:02:34;;;;;;;17.23;12.87;;;;;;;9.93;62.10;101073.25;5011734;28;20501;-52
2022/03/28 07:05:03;;;;;;;16.83;12.20;;;;;;;10.06;61.71;101080.09;5012141;28;20845;-51
2022/03/28 07:07:39;;;;;;;17.33;12.23;;;;;;;10.30;61.43;101071.72;5013013;28;20053;-52
2022/03/28 07:10:07;;;;;;;15.80;12.07;;;;;;;10.54;60.99;101066.09;5014713;28;20049;-52
2022/03/28 07:12:35;;;;;;;18.23;13.23;;;;;;;10.94;59.91;101072.22;5006398;28;20064;-49
2022/03/28 07:15:02;;;;;;;18.17;12.40;;;;;;;11.62;59.39;101059.66;5008371;28;20049;-49
2022/03/28 07:17:29;;;;;;;17.45;13.05;;;;;;;12.66;56.88;101056.44;5027460;28;20050;-52
2022/03/28 07:19:57;;;;;;;16.75;12.48;;;;;;;13.71;54.46;101053.34;5013072;28;20064;-49
2022/03/28 07:22:27;;;;;;;18.63;13.23;;;;;;;14.88;51.25;101048.22;5003732;28;20062;-50
2022/03/28 07:24:54;;;;;;;17.92;12.60;;;;;;;16.00;48.43;101046.38;4994689;28;20469;-53
2022/03/28 07:27:21;;;;;;;16.42;11.73;;;;;;;17.04;46.13;101033.63;5022865;28;20053;-49
2022/03/28 07:29:49;;;;;;;14.98;12.05;;;;;;;18.04;42.95;101041.22;5012897;28;20057;-52
2022/03/28 07:32:16;;;;;;;18.75;12.57;;;;;;;19.01;41.09;101033.81;5012530;28;20482;-54
2022/03/28 07:34:43;;;;;;;16.90;12.10;;;;;;;20.01;39.20;101035.78;5031247;28;20068;-51
2022/03/28 07:37:11;;;;;;;15.68;12.23;;;;;;;20.75;37.44;101025.81;5017533;28;20057;-53
2022/03/28 07:39:40;;;;;;;14.30;11.73;;;;;;;21.47;35.88;101019.63;5026759;28;20406;-52
2022/03/28 07:42:09;;;;;;;14.75;10.98;;;;;;;22.31;34.44;101019.91;5015895;28;20056;-53
2022/03/28 07:44:36;;;;;;;14.65;12.98;;;;;;;23.06;32.64;101007.59;5027193;28;20053;-55
2022/03/28 07:47:08;;;;;;;15.48;11.40;;;;;;;23.74;32.20;101001.00;5012215;28;20049;-50
2022/03/28 07:49:37;;;;;;;12.82;11.45;;;;;;;24.35;30.84;101002.34;5002259;28;20057;-50
2022/03/28 07:52:07;;;;;;;14.55;12.48;;;;;;;24.98;29.79;100991.72;5009057;28;20388;-53
2022/03/28 07:54:34;;;;;;;15.27;12.48;;;;;;;25.31;29.11;100981.28;5012306;28;20053;-51
2022/03/28 07:57:05;;;;;;;12.65;11.00;;;;;;;25.92;28.57;100973.63;5012251;28;20050;-49
2022/03/28 07:59:33;;;;;;;13.50;11.32;;;;;;;26.36;27.52;100974.41;5012263;28;20046;-54
2022/03/28 08:02:01;;;;;;;14.07;12.00;;;;;;;26.86;27.03;100982.84;5005301;28;20561;-50
2022/03/28 08:04:29;;;;;;;13.73;10.88;;;;;;;27.11;26.42;100974.16;4995820;28;20501;-50
2022/03/28 08:06:57;;;;;;;13.80;11.25;;;;;;;27.62;26.44;100979.59;5011669;28;20061;-49
2022/03/28 08:09:24;;;;;;;13.63;10.98;;;;;;;28.21;25.67;100970.94;5012069;28;20045;-51
2022/03/28 08:11:52;;;;;;;14.38;11.43;;;;;;;28.30;25.99;100973.31;5011213;28;20401;-54
2022/03/28 08:14:20;;;;;;;12.35;10.95;;;;;;;28.92;25.02;100975.06;5012428;28;20418;-55
2022/03/28 08:16:49;;;;;;;;;;;;;;;29.20;24.42;100969.41;5011307;28;20057;-51
2022/03/28 08:19:16;;;;;;;15.07;11.38;;;;;;;29.90;24.03;100972.47;5012179;28;19921;-52
2022/03/28 08:21:43;;;;;;;13.25;11.40;;;;;;;30.59;22.75;100966.28;5009891;28;20050;-52
2022/03/28 08:24:11;;;;;;;11.77;10.57;;;;;;;31.20;22.67;100967.91;5011709;28;20057;-51
2022/03/28 08:26:38;;;;;;;11.95;10.38;;;;;;;31.83;21.74;100963.16;5005684;28;20402;-55
2022/03/28 08:29:06;;;;;;;11.27;10.25;;;;;;;32.42;21.13;100961.19;5011410;28;20498;-53
2022/03/28 08:31:35;;;;;;;11.50;10.32;;;;;;;33.11;20.38;100953.03;5011135;28;20609;-55
2022/03/28 08:34:02;;;;;;;10.18;9.18;;;;;;;33.69;20.11;100954.13;5011863;28;20061;-54
2022/03/28 08:36:30;;;;;;;12.48;10.18;;;;;;;34.23;19.12;100952.28;5011728;28;20053;-50
2022/03/28 08:38:57;;;;;;;11.35;10.00;;;;;;;34.64;19.36;100941.72;5001160;28;20104;-54
2022/03/28 08:41:27;;;;;;;14.13;9.90;;;;;;;35.17;18.45;100933.06;5010104;28;20054;-53
2022/03/28 08:43:55;;;;;;;11.85;10.75;;;;;;;35.43;18.17;100942.38;5011753;28;20058;-52
2022/03/28 08:46:23;;;;;;;12.77;10.77;;;;;;;36.01;18.04;100939.97;5008807;28;20484;-55
2022/03/28 08:48:54;;;;;;;10.90;9.90;;;;;;;36.54;17.31;100936.78;5007118;28;20057;-55
2022/03/28 08:51:22;;;;;;;12.57;11.38;;;;;;;37.11;16.69;100928.34;5003202;28;20054;-53
2022/03/28 08:53:50;;;;;;;11.93;10.70;;;;;;;37.10;16.46;100932.53;5010624;28;20061;-55
2022/03/28 08:56:18;;;;;;;11.90;10.80;;;;;;;37.59;16.15;100924.78;5010585;28;20120;-56
2022/03/28 08:58:45;;;;;;;10.65;9.65;;;;;;;37.90;15.90;100929.41;5011744;28;20057;-55
2022/03/28 09:01:13;;;;;;;11.48;10.38;;;;;;;37.77;16.20;100929.66;5010582;28;20065;-54
2022/03/28 09:03:44;;;;;;;11.65;10.52;;;;;;;37.80;15.84;100919.97;5011002;28;20062;-55
2022/03/28 09:06:34;;;;;;;12.02;10.88;;;;;;;38.25;15.61;100920.94;5010781;28;20064;-54
2022/03/28 09:09:20;;;;;;;10.63;9.73;;;;;;;38.64;15.08;100920.94;5010665;28;20061;-52
2022/03/28 09:11:51;;;;;;;12.02;10.93;;;;;;;38.25;15.34;100914.31;5010425;28;20058;-52
2022/03/28 09:14:27;;;;;;;11.63;10.55;;;;;;;38.96;14.96;100912.53;5007660;28;20428;-54
2022/03/28 09:17:02;;;;;;;27.17;15.43;;;;;;;39.49;14.44;100905.72;5010716;28;20061;-52
2022/03/28 09:19:44;;;;;;;13.88;11.10;;;;;;;39.76;14.26;100907.44;5005330;28;20057;-55
2022/03/28 09:22:14;;;;;;;12.18;11.13;;;;;;;40.11;14.37;100914.53;5006742;28;20052;-56
2022/03/28 09:24:42;;;;;;;11.98;10.82;;;;;;;40.39;14.34;100912.00;5009477;28;20069;-49
2022/03/28 09:27:17;;;;;;;;;;;;;;;40.27;14.38;100911.00;5007637;28;20069;-54
2022/03/28 09:29:59;;;;;;;13.20;12.13;;;;;;;40.50;14.52;100903.34;5007132;28;19921;-55
2022/03/28 09:32:28;;;;;;;12.77;11.63;;;;;;;40.80;14.22;100900.19;5004920;28;20414;-54
2022/03/28 09:35:20;;;;;;;13.98;12.75;;;;;;;40.86;13.71;100898.13;5007959;28;20058;-56
2022/03/28 09:37:51;;;;;;;13.50;12.30;;;;;;;41.27;13.79;100894.25;4998615;28;20054;-56
2022/03/28 09:40:28;;;;;;;12.77;11.55;;;;;;;41.61;13.68;100885.72;5010620;28;20053;-57
2022/03/28 09:42:56;;;;;;;13.03;11.77;;;;;;;41.69;13.35;100880.97;5010985;28;20076;-53
2022/03/28 09:45:30;;;;;;;11.60;10.57;;;;;;;41.90;13.05;100879.47;5010642;28;20057;-56
2022/03/28 09:48:01;;;;;;;11.90;10.90;;;;;;;42.37;12.28;100876.97;5003244;28;20053;-55
2022/03/28 09:50:33;;;;;;;13.15;12.02;;;;;;;42.34;13.11;100880.97;5005582;28;20050;-56
2022/03/28 09:53:16;;;;;;;12.40;11.20;;;;;;;42.60;12.52;100879.19;5011076;28;20057;-55
2022/03/28 09:55:55;;;;;;;12.02;10.82;;;;;;;42.83;11.96;100872.00;4998172;28;20046;-54
2022/03/28 09:58:43;;;;;;;14.50;13.07;;;;;;;43.15;11.69;100863.75;5012194;28;20061;-55
2022/03/28 10:01:16;;;;;;;14.07;12.68;;;;;;;43.25;11.86;100870.16;5010626;28;20135;-54
2022/03/28 10:03:46;;;;;;;14.65;12.93;;;;;;;43.03;11.99;100870.97;5009856;28;20061;-54
2022/03/28 10:06:14;;;;;;;13.23;11.95;;;;;;;43.11;12.03;100863.22;5008980;28;20045;-52
2022/03/28 10:08:43;;;;;;;13.80;12.40;;;;;;;42.94;12.14;100860.28;5006039;28;20089;-56
2022/03/28 10:11:11;;;;;;;15.07;13.63;;;;;;;42.83;11.70;100854.41;5011013;28;20057;-55
2022/03/28 10:13:39;;;;;;;15.77;14.32;;;;;;;42.87;11.72;100848.34;5012020;28;20061;-54
2022/03/28 10:16:07;;;;;;;13.32;11.93;;;;;;;43.03;12.19;100856.31;5009235;28;20057;-54
2022/03/28 10:18:36;;;;;;;14.77;13.32;;;;;;;43.37;11.82;100853.34;5005464;28;20057;-53
2022/03/28 10:21:07;;;;;;;13.57;12.23;;;;;;;43.47;11.77;100854.66;5009070;28;20050;-54
2022/03/28 10:23:42;;;;;;;14.82;13.48;;;;;;;42.92;12.05;100841.66;5009159;28;20049;-56
2022/03/28 10:26:12;;;;;;;14.55;13.15;;;;;;;43.38;11.68;100846.13;5004589;28;20046;-54
2022/03/28 10:28:40;;;;;;;14.38;13.07;;;;;;;43.37;11.62;100833.63;5010071;28;20053;-53
2022/03/28 10:31:14;;;;;;;;;;;;;;;43.22;11.82;100833.09;5010587;28;20042;-56
2022/03/28 10:33:51;;;;;;;14.77;13.38;;;;;;;43.66;11.58;100830.59;5012124;28;19921;-56
2022/03/28 10:36:27;;;;;;;15.32;13.73;;;;;;;43.93;11.58;100820.88;5010835;28;20048;-56
2022/03/28 10:38:57;;;;;;;14.63;13.23;;;;;;;43.78;11.61;100821.19;5011028;28;20049;-57
2022/03/28 10:41:27;;;;;;;16.08;14.48;;;;;;;43.95;11.44;100814.44;5006056;28;20091;-55
2022/03/28 10:44:04;;;;;;;15.77;14.38;;;;;;;43.99;10.87;100812.81;4998215;28;20050;-55
2022/03/28 10:46:36;;;;;;;15.00;13.48;;;;;;;43.96;11.40;100810.19;5012490;28;20054;-52
2022/03/28 10:49:06;;;;;;;14.55;13.27;;;;;;;43.85;11.45;100802.25;5011082;28;20062;-55
2022/03/28 10:51:33;;;;;;;15.32;13.95;;;;;;;43.84;11.37;100799.84;5007218;28;20495;-53
2022/03/28 10:54:03;;;;;;;;;;;;;;;43.05;12.15;100806.75;5013229;28;20061;-53
2022/03/28 10:56:37;;;;;;;15.85;14.35;;;;;;;43.72;11.65;100796.97;5004871;28;20290;-57
2022/03/28 10:59:07;;;;;;;16.77;15.27;;;;;;;43.72;11.20;100790.28;4998348;28;20419;-55
2022/03/28 11:01:35;;;;;;;16.60;15.10;;;;;;;43.71;11.44;100789.50;5013403;28;20422;-55
2022/03/28 11:04:06;;;;;;;16.55;15.15;;;;;;;43.79;11.51;100786.81;5014937;28;20058;-55
2022/03/28 11:06:49;;;;;;;16.13;14.63;;;;;;;43.98;11.28;100781.09;5014580;28;20053;-56
2022/03/28 11:09:45;;;;;;;16.70;15.13;;;;;;;44.24;11.00;100774.78;5014819;28;20050;-56
2022/03/28 11:12:16;;;;;;;15.63;14.13;;;;;;;44.29;11.46;100771.03;5012094;28;20511;-56
2022/03/28 11:14:46;;;;;;;16.00;14.40;;;;;;;44.21;11.15;100772.13;5012564;28;20076;-52
2022/03/28 11:17:18;;;;;;;16.80;15.25;;;;;;;44.26;11.47;100765.44;5007279;28;20061;-56
2022/03/28 11:19:56;;;;;;;16.92;15.52;;;;;;;43.70;11.43;100766.56;5009059;28;20483;-55
2022/03/28 11:22:41;;;;;;;15.45;14.05;;;;;;;43.96;11.54;100755.19;5010556;28;20054;-57
2022/03/28 11:25:37;;;;;;;16.50;14.90;;;;;;;44.11;11.38;100754.06;5012795;28;20056;-53